Flight Track Log - Related Links

Times and Time Zones

All times are in EDT time to prevent confusion due to time zone crossing. See the SKW5500 flight status page for this flight to view local times or setup timezone preferences in your user account.

Time Position Orientation Groundspeed Altitude Reporting Facility
EDT Latitude Longitude Course Direction KTS MPH feet Rate Location/Type
Thu 06:35:14 PM 39.2617 -106.8803 90° East 191 220 9,500  Level Denver Center
Thu 06:36:16 PM 39.2769 -106.9567 285° West 219 252 12,800 2,758 Climbing Denver Center
Thu 06:37:18 PM 39.3361 -106.9469 North 270 311 15,200 1,935 Climbing Denver Center
Thu 06:38:00 PM 39.3876 -106.6609 101° East  Level FlightAware Approximate
Thu 06:38:20 PM 39.3472 -106.8061 84° East 337 388 16,800  Level Denver Center
Thu 06:39:00 PM 39.3639 -106.5363 104° East  Level FlightAware Approximate
Thu 06:39:22 PM 39.3481 -106.6719 89° East 370 426 19,900  Level Denver Center
Thu 06:40:00 PM 39.3333 -106.4166 90° East  Level FlightAware Approximate
Thu 06:41:26 PM 39.3558 -106.3764 88° East 428 493 21,000  Level Denver Center
Thu 06:42:28 PM 39.3650 -106.1928 86° East 453 521 21,000  Level Denver Center
Thu 06:43:30 PM 39.3742 -106.0256 86° East 433 498 21,000  Level Denver Center
Thu 06:44:32 PM 39.3794 -105.8719 87° East 429 494 21,000  Level Denver Center
Thu 06:45:34 PM 39.3858 -105.7114 87° East 443 510 21,000  Level Denver Center
Thu 06:46:36 PM 39.3944 -105.5456 86° East 453 521 21,000 -677 Level Denver Center
Thu 06:47:38 PM 39.4392 -105.3956 69° East 437 503 19,600 -1,597 Descending Denver Center
Thu 06:48:40 PM 39.5072 -105.2697 55° Northeast 430 495 17,700 -1,500 Descending Denver Center
Thu 06:49:42 PM 39.5711 -105.1469 56° Northeast 381 438 16,500 -1,306 Descending Denver Center
Thu 06:50:44 PM 39.6294 -105.0364 56° Northeast 375 432 15,000 -1,403 Descending Denver Center
Thu 06:51:46 PM 39.6917 -104.9156 56° Northeast 375 432 13,600 -1,355 Descending Denver Center
Thu 06:52:48 PM 39.7694 -104.8425 36° Northeast 357 411 12,200 -1,268 Descending Denver Center
Thu 06:53:49 PM 39.8697 -104.8414 360° North 328 377 11,000 -878 Descending Denver Center
Thu 06:54:51 PM 39.9436 -104.8350 North 268 308 10,400 -581 Descending Denver Center

Login

Don't have an account? Register now (free) for customized features, flight alerts, and more!